Time;durP1;ratioP1;P1;durP2;ratioP2;P2;SDS_P1;SDS_P2;PMS_P1;PMS_P2;Temp;Humidity;BMP_temperature;BMP_pressure;BME280_temperature;BME280_humidity;BME280_pressure;Samples;Min_cycle;Max_cycle;Signal;HPM_P1;HPM_P2
2023/01/22 00:00:57;;;;;;;6.87;5.40;;;0.70;99.90;;;;;;5070430;27;20231;-66
2023/01/22 00:03:24;;;;;;;10.27;5.93;;;0.80;99.90;;;;;;5063665;27;20228;-66
2023/01/22 00:05:51;;;;;;;8.07;5.30;;;0.70;99.90;;;;;;5070555;27;20200;-66
2023/01/22 00:08:18;;;;;;;7.97;5.57;;;0.70;99.90;;;;;;5063225;27;20260;-66
2023/01/22 00:10:50;;;;;;;10.63;5.90;;;0.70;99.90;;;;;;5083973;27;20661;-66
2023/01/22 00:13:17;;;;;;;10.90;6.67;;;0.70;99.90;;;;;;5029124;27;20282;-66
2023/01/22 00:15:44;;;;;;;7.37;4.93;;;0.80;99.90;;;;;;5071011;28;20203;-66
2023/01/22 00:18:11;;;;;;;10.43;6.00;;;0.70;99.90;;;;;;5084560;28;20569;-66
2023/01/22 00:20:38;;;;;;;7.53;4.80;;;0.80;99.90;;;;;;5060272;28;20224;-66
2023/01/22 00:23:05;;;;;;;6.37;4.63;;;0.70;99.90;;;;;;5069839;28;20255;-66
2023/01/22 00:25:32;;;;;;;8.53;5.57;;;0.80;99.90;;;;;;5072894;27;20202;-65
2023/01/22 00:28:00;;;;;;;7.83;4.97;;;0.90;99.90;;;;;;5055800;28;20211;-67
2023/01/22 00:30:27;;;;;;;8.90;4.37;;;0.90;99.90;;;;;;5064790;27;21435;-67
2023/01/22 00:32:54;;;;;;;8.80;4.90;;;0.90;99.90;;;;;;5084405;27;20213;-66
2023/01/22 00:35:21;;;;;;;11.00;4.57;;;0.90;99.90;;;;;;5072065;28;20204;-66
2023/01/22 00:37:48;;;;;;;6.87;3.23;;;0.90;99.90;;;;;;5064585;27;20219;-66
2023/01/22 00:40:15;;;;;;;6.10;3.63;;;0.90;99.90;;;;;;5065365;27;20661;-66
2023/01/22 00:42:41;;;;;;;5.37;3.73;;;0.90;99.90;;;;;;5080932;27;20807;-65
2023/01/22 00:45:12;;;;;;;9.20;4.47;;;0.90;99.90;;;;;;5047865;28;20820;-66
2023/01/22 00:47:39;;;;;;;6.10;3.83;;;0.90;99.90;;;;;;5085445;27;20204;-66
2023/01/22 00:50:07;;;;;;;4.57;3.40;;;1.00;99.90;;;;;;5066338;28;22391;-66
2023/01/22 00:52:36;;;;;;;5.57;3.50;;;1.00;99.90;;;;;;5072554;27;20214;-66
2023/01/22 00:55:03;;;;;;;6.40;3.63;;;;;;;;;;5072356;28;20206;-66
2023/01/22 00:57:30;;;;;;;5.47;3.80;;;1.00;99.90;;;;;;5080009;28;20231;-66
2023/01/22 00:59:57;;;;;;;7.00;4.07;;;1.00;99.90;;;;;;5052064;28;20224;-66
2023/01/22 01:02:26;;;;;;;5.87;3.57;;;0.90;99.90;;;;;;5078584;28;20223;-66
2023/01/22 01:04:52;;;;;;;5.20;3.40;;;1.00;99.90;;;;;;5078097;28;20207;-66
2023/01/22 01:07:19;;;;;;;5.93;3.67;;;1.00;99.90;;;;;;5071071;27;20206;-66
2023/01/22 01:09:46;;;;;;;4.43;3.60;;;1.00;99.90;;;;;;5071031;27;20199;-66
2023/01/22 01:12:13;;;;;;;4.23;3.30;;;1.00;99.90;;;;;;5040591;27;20212;-66
2023/01/22 01:14:40;;;;;;;4.53;3.50;;;1.00;99.90;;;;;;5086092;27;20204;-66
2023/01/22 01:17:06;;;;;;;5.63;3.37;;;1.00;99.90;;;;;;5034445;27;20968;-66
2023/01/22 01:19:35;;;;;;;4.23;3.20;;;1.00;99.90;;;;;;5083681;27;20194;-66
2023/01/22 01:22:01;;;;;;;3.77;3.07;;;1.00;99.90;;;;;;5068165;28;20212;-66
2023/01/22 01:24:28;;;;;;;3.73;2.73;;;1.00;99.90;;;;;;5070453;28;20226;-66
2023/01/22 01:26:55;;;;;;;5.77;3.30;;;1.00;99.90;;;;;;5058065;28;20209;-66
2023/01/22 01:29:22;;;;;;;4.60;3.67;;;1.00;99.90;;;;;;5084626;28;20200;-65
2023/01/22 01:31:52;;;;;;;5.20;3.23;;;1.00;99.90;;;;;;5047660;28;20211;-66
2023/01/22 01:34:18;;;;;;;6.03;3.20;;;1.00;99.90;;;;;;5073613;27;20200;-66
2023/01/22 01:36:47;;;;;;;8.20;3.20;;;1.00;99.90;;;;;;5082038;28;20215;-66
2023/01/22 01:39:13;;;;;;;9.40;3.53;;;1.00;99.90;;;;;;5069354;28;20563;-66
2023/01/22 01:41:40;;;;;;;5.13;2.80;;;1.00;99.90;;;;;;5055885;27;20205;-66
2023/01/22 01:44:09;;;;;;;4.53;3.17;;;1.00;99.90;;;;;;5080418;28;20231;-66
2023/01/22 01:46:40;;;;;;;4.50;2.97;;;1.00;99.90;;;;;;5047949;28;20199;-66
2023/01/22 01:49:15;;;;;;;5.70;3.07;;;1.00;99.90;;;;;;5063301;27;20207;-66
2023/01/22 01:51:42;;;;;;;3.97;2.83;;;1.00;99.90;;;;;;5078987;28;20213;-66
2023/01/22 01:54:11;;;;;;;4.40;2.97;;;1.00;99.90;;;;;;5067240;27;20755;-66
2023/01/22 01:56:42;;;;;;;5.23;3.13;;;1.10;99.90;;;;;;5072285;27;20207;-66
2023/01/22 01:59:14;;;;;;;6.10;3.50;;;1.10;99.90;;;;;;5057783;28;20236;-66
2023/01/22 02:01:42;;;;;;;4.93;3.50;;;1.10;99.90;;;;;;5077373;28;20237;-66
2023/01/22 02:04:09;;;;;;;9.03;3.73;;;1.10;99.90;;;;;;5057221;27;20227;-66
2023/01/22 02:06:36;;;;;;;4.63;3.23;;;1.10;99.90;;;;;;5079121;28;20896;-66
2023/01/22 02:09:03;;;;;;;3.63;3.10;;;1.10;99.90;;;;;;5065331;27;20690;-66
2023/01/22 02:11:33;;;;;;;4.70;3.20;;;1.10;99.90;;;;;;5064603;28;20211;-66
2023/01/22 02:14:04;;;;;;;5.33;3.63;;;1.10;99.90;;;;;;5066121;27;20219;-66
2023/01/22 02:16:31;;;;;;;4.87;3.40;;;1.10;99.90;;;;;;5072484;27;20224;-66
2023/01/22 02:18:58;;;;;;;5.57;3.10;;;1.10;99.90;;;;;;5036029;28;20214;-66
2023/01/22 02:21:35;;;;;;;5.23;2.80;;;1.10;99.90;;;;;;5076572;28;20707;-66
2023/01/22 02:24:03;;;;;;;6.63;3.23;;;1.10;99.90;;;;;;5065257;27;21124;-67
2023/01/22 02:26:30;;;;;;;4.93;3.77;;;1.10;99.90;;;;;;5060187;28;20917;-66
2023/01/22 02:28:57;;;;;;;4.63;3.30;;;1.20;99.90;;;;;;5068528;27;20257;-66
2023/01/22 02:31:24;;;;;;;5.13;2.90;;;1.10;99.90;;;;;;5074580;28;20198;-66
2023/01/22 02:33:51;;;;;;;4.30;3.37;;;1.10;99.90;;;;;;5041354;28;20703;-66
2023/01/22 02:36:18;;;;;;;4.73;3.40;;;1.20;99.90;;;;;;5066520;28;20204;-66
2023/01/22 02:38:46;;;;;;;7.40;3.70;;;1.10;99.90;;;;;;5081498;28;20202;-66
2023/01/22 02:41:14;;;;;;;4.90;3.60;;;1.10;99.90;;;;;;5062398;28;20200;-66
2023/01/22 02:43:41;;;;;;;5.50;3.20;;;1.10;99.90;;;;;;5065666;28;20240;-66
2023/01/22 02:46:07;;;;;;;6.00;3.60;;;1.10;99.90;;;;;;5075489;28;20193;-66
2023/01/22 02:48:34;;;;;;;5.20;3.40;;;1.10;99.90;;;;;;5034214;28;20209;-66
2023/01/22 02:51:01;;;;;;;4.80;3.60;;;1.10;99.90;;;;;;5068918;28;20235;-66
2023/01/22 02:53:28;;;;;;;4.33;3.60;;;1.00;99.90;;;;;;5082768;28;20195;-65
2023/01/22 02:55:56;;;;;;;5.67;3.33;;;1.10;99.90;;;;;;5068697;28;20753;-66
2023/01/22 02:58:23;;;;;;;5.30;3.23;;;1.10;99.90;;;;;;5053155;28;20232;-66
2023/01/22 03:00:50;;;;;;;5.23;3.40;;;1.10;99.90;;;;;;5076666;28;21187;-66
2023/01/22 03:03:17;;;;;;;4.07;3.30;;;1.10;99.90;;;;;;5068534;28;20227;-66
2023/01/22 03:05:47;;;;;;;6.63;3.93;;;1.10;99.90;;;;;;5035487;28;20200;-65
2023/01/22 03:08:13;;;;;;;4.17;3.30;;;1.00;99.90;;;;;;5077322;28;20194;-66
2023/01/22 03:10:40;;;;;;;5.47;3.60;;;1.00;99.90;;;;;;5075875;28;20207;-65
2023/01/22 03:21:21;;;;;;;5.63;4.03;;;0.90;99.90;;;;;;5032935;28;20216;-63
2023/01/22 03:23:50;;;;;;;5.67;4.00;;;0.90;99.90;;;;;;5086433;28;20232;-63
2023/01/22 03:26:17;;;;;;;5.47;4.30;;;0.90;99.90;;;;;;5072662;28;20200;-63
2023/01/22 03:28:45;;;;;;;5.60;4.40;;;0.90;99.90;;;;;;5064652;28;20215;-63
2023/01/22 03:31:13;;;;;;;7.77;3.93;;;0.80;99.90;;;;;;5065144;28;20204;-64
2023/01/22 03:33:40;;;;;;;5.50;4.47;;;0.90;99.90;;;;;;5084774;28;20204;-63
2023/01/22 03:36:09;;;;;;;7.40;4.57;;;0.90;99.90;;;;;;5045552;27;20218;-66
2023/01/22 03:38:36;;;;;;;5.93;4.30;;;0.90;99.90;;;;;;5086067;27;20210;-67
2023/01/22 03:41:05;;;;;;;7.63;4.40;;;0.90;99.90;;;;;;5081194;28;20195;-66
2023/01/22 03:43:33;;;;;;;5.97;4.50;;;0.90;99.90;;;;;;5071095;27;20958;-64
2023/01/22 03:46:04;;;;;;;7.47;4.43;;;0.80;99.90;;;;;;5060490;28;20199;-63
2023/01/22 03:48:31;;;;;;;5.77;3.80;;;0.90;99.90;;;;;;5079589;27;20203;-64
2023/01/22 03:51:03;;;;;;;7.67;4.97;;;0.90;99.90;;;;;;5037498;28;21282;-67
2023/01/22 03:53:30;;;;;;;8.23;4.93;;;0.80;99.90;;;;;;5087302;28;20487;-63
2023/01/22 03:55:58;;;;;;;6.73;4.03;;;0.80;99.90;;;;;;5078484;28;20232;-64
2023/01/22 03:58:25;;;;;;;6.10;4.70;;;0.80;99.90;;;;;;5069783;27;20275;-63
2023/01/22 04:00:56;;;;;;;6.93;4.57;;;0.80;99.90;;;;;;5056764;27;20207;-64
2023/01/22 04:03:24;;;;;;;7.77;4.73;;;0.80;99.90;;;;;;5078309;27;20233;-64
2023/01/22 04:05:51;;;;;;;6.27;3.97;;;0.80;99.90;;;;;;5049695;27;20245;-64
2023/01/22 04:08:18;;;;;;;6.37;4.93;;;0.80;99.90;;;;;;5083980;28;20198;-64
2023/01/22 04:10:45;;;;;;;5.07;3.90;;;0.80;99.90;;;;;;5079076;27;21038;-64
2023/01/22 04:13:12;;;;;;;5.10;4.27;;;0.80;99.90;;;;;;5081075;28;20695;-64
2023/01/22 04:15:38;;;;;;;6.23;4.20;;;0.80;99.90;;;;;;5070381;27;20221;-63
2023/01/22 04:18:05;;;;;;;5.53;3.97;;;0.80;99.90;;;;;;5070425;28;20200;-64
2023/01/22 04:20:33;;;;;;;7.93;4.83;;;0.80;99.90;;;;;;5077762;28;20212;-64
2023/01/22 04:23:00;;;;;;;5.73;4.30;;;0.80;99.90;;;;;;5049793;28;20581;-64
2023/01/22 04:25:27;;;;;;;5.63;4.60;;;0.80;99.90;;;;;;5074556;27;20227;-63
2023/01/22 04:27:54;;;;;;;5.37;4.33;;;0.80;99.90;;;;;;5076343;27;20196;-64
2023/01/22 04:30:22;;;;;;;6.50;4.20;;;0.80;99.90;;;;;;5074462;28;20204;-64
2023/01/22 04:32:48;;;;;;;4.27;3.87;;;0.80;99.90;;;;;;5067801;27;20877;-64
2023/01/22 04:35:15;;;;;;;5.47;4.10;;;0.80;99.90;;;;;;5084762;27;20207;-64
2023/01/22 04:37:44;;;;;;;7.00;3.90;;;0.90;99.90;;;;;;5049141;28;20205;-64
2023/01/22 04:40:12;;;;;;;6.03;4.40;;;0.80;99.90;;;;;;5076685;28;20328;-64
2023/01/22 04:42:38;;;;;;;5.93;4.17;;;0.80;99.90;;;;;;5081232;28;20192;-63
2023/01/22 04:45:06;;;;;;;5.93;4.33;;;0.80;99.90;;;;;;5062404;28;20228;-64
2023/01/22 04:47:33;;;;;;;5.43;4.13;;;0.70;99.90;;;;;;5054174;27;20222;-64
2023/01/22 04:50:00;;;;;;;5.63;3.97;;;0.70;99.90;;;;;;5073288;27;20192;-64
2023/01/22 04:52:27;;;;;;;5.37;3.87;;;0.80;99.90;;;;;;5081530;27;20203;-64
2023/01/22 04:54:55;;;;;;;5.00;3.93;;;0.80;99.90;;;;;;5045910;27;20211;-64
2023/01/22 04:57:22;;;;;;;4.50;4.03;;;0.80;99.90;;;;;;5078715;27;20257;-64
2023/01/22 04:59:48;;;;;;;5.93;4.77;;;0.80;99.90;;;;;;5080531;28;20195;-64
2023/01/22 05:02:15;;;;;;;4.80;3.83;;;0.80;99.90;;;;;;5046224;27;20208;-64
2023/01/22 05:04:42;;;;;;;5.50;4.10;;;0.70;99.90;;;;;;5079855;28;21047;-63
2023/01/22 05:07:09;;;;;;;5.20;3.80;;;0.80;99.90;;;;;;5075859;28;21417;-64
2023/01/22 05:09:36;;;;;;;7.40;4.23;;;0.70;99.90;;;;;;5054688;28;20207;-64
2023/01/22 05:12:04;;;;;;;4.70;4.00;;;0.80;99.90;;;;;;5077763;27;20215;-64
2023/01/22 05:14:31;;;;;;;6.63;4.33;;;0.80;99.90;;;;;;5079992;27;20209;-64
2023/01/22 05:16:58;;;;;;;4.87;3.73;;;0.80;99.90;;;;;;5073139;27;20710;-64
2023/01/22 05:19:25;;;;;;;6.17;4.67;;;0.80;99.90;;;;;;5065504;28;20206;-64
2023/01/22 05:21:51;;;;;;;5.37;4.20;;;0.80;99.90;;;;;;5082022;28;20204;-63
2023/01/22 05:24:18;;;;;;;4.27;3.70;;;0.70;99.90;;;;;;5049458;28;20227;-63
2023/01/22 05:26:45;;;;;;;5.17;4.00;;;0.80;99.90;;;;;;5082038;28;20200;-64
2023/01/22 05:29:13;;;;;;;6.93;4.57;;;0.80;99.90;;;;;;5081249;28;20206;-64
2023/01/22 05:31:40;;;;;;;6.30;4.63;;;0.80;99.90;;;;;;5075714;27;20226;-64
2023/01/22 05:34:07;;;;;;;8.60;4.10;;;0.70;99.90;;;;;;5050790;27;20204;-64
2023/01/22 05:36:34;;;;;;;5.77;4.50;;;0.80;99.90;;;;;;5072238;28;20677;-64
2023/01/22 05:39:01;;;;;;;6.67;4.03;;;0.80;99.90;;;;;;5083576;28;20201;-64
2023/01/22 05:41:28;;;;;;;5.13;4.10;;;0.80;99.90;;;;;;5046611;28;20225;-63
2023/01/22 05:43:54;;;;;;;5.50;4.67;;;0.80;99.90;;;;;;5082255;27;20248;-64
2023/01/22 05:46:24;;;;;;;4.27;3.80;;;0.80;99.90;;;;;;5078946;28;20196;-64
2023/01/22 05:48:51;;;;;;;6.37;4.60;;;1.00;99.90;;;;;;5054695;28;20208;-64
2023/01/22 05:51:18;;;;;;;5.57;4.27;;;0.80;99.90;;;;;;5079216;28;20204;-63
2023/01/22 05:53:45;;;;;;;7.10;4.30;;;0.70;99.90;;;;;;5078919;28;20844;-63
2023/01/22 05:56:12;;;;;;;6.90;4.30;;;0.70;99.90;;;;;;5049319;28;20224;-64
2023/01/22 05:58:39;;;;;;;6.73;4.27;;;0.80;99.90;;;;;;5077637;28;20234;-63
2023/01/22 06:01:06;;;;;;;8.27;4.70;;;0.80;99.90;;;;;;5074859;28;20565;-64
2023/01/22 06:03:34;;;;;;;6.13;4.60;;;0.70;99.90;;;;;;5066346;27;21451;-64
2023/01/22 06:06:02;;;;;;;7.70;4.43;;;0.80;99.90;;;;;;5066339;28;20207;-63
2023/01/22 06:08:29;;;;;;;5.57;4.03;;;0.80;99.90;;;;;;5077885;28;20989;-64
2023/01/22 06:11:00;;;;;;;6.07;4.30;;;0.80;99.90;;;;;;5040722;28;20215;-64
2023/01/22 06:13:27;;;;;;;5.17;3.87;;;0.80;99.90;;;;;;5075836;28;20270;-64
2023/01/22 06:15:54;;;;;;;7.07;4.20;;;0.80;99.90;;;;;;5077588;28;20234;-64
2023/01/22 06:18:22;;;;;;;9.93;4.57;;;0.80;99.90;;;;;;5080798;28;20692;-63
2023/01/22 06:20:51;;;;;;;5.33;4.10;;;0.70;99.90;;;;;;5061125;27;20202;-63
2023/01/22 06:23:18;;;;;;;5.57;4.60;;;0.80;99.90;;;;;;5078585;28;20208;-63
2023/01/22 06:25:45;;;;;;;4.50;3.63;;;0.80;99.90;;;;;;5050515;28;20248;-64
2023/01/22 06:28:11;;;;;;;6.57;4.80;;;0.80;99.90;;;;;;5077274;28;20230;-64
2023/01/22 06:30:38;;;;;;;5.77;4.20;;;0.80;99.90;;;;;;5074844;28;20205;-63
2023/01/22 06:33:05;;;;;;;6.63;4.60;;;0.90;99.90;;;;;;5079331;28;20195;-63
2023/01/22 06:35:32;;;;;;;5.53;4.30;;;0.80;99.90;;;;;;5060497;28;20206;-64
2023/01/22 06:38:00;;;;;;;4.90;4.27;;;0.90;99.90;;;;;;5078822;28;20203;-64
2023/01/22 06:40:26;;;;;;;6.23;4.40;;;0.90;99.90;;;;;;5051111;28;20215;-64
2023/01/22 06:42:53;;;;;;;4.57;3.87;;;0.80;99.90;;;;;;5062958;28;20220;-64
2023/01/22 06:45:20;;;;;;;5.23;3.73;;;0.80;99.90;;;;;;5076254;28;20230;-64
2023/01/22 06:47:47;;;;;;;5.00;4.17;;;0.80;99.90;;;;;;5073815;28;20691;-63
2023/01/22 06:50:14;;;;;;;6.87;4.13;;;0.90;99.90;;;;;;5080488;28;20200;-63
2023/01/22 06:52:40;;;;;;;8.57;4.20;;;0.90;99.90;;;;;;5066056;28;20197;-63
2023/01/22 06:55:09;;;;;;;6.20;4.40;;;0.90;99.90;;;;;;5077393;28;20209;-63
2023/01/22 06:57:36;;;;;;;7.33;4.20;;;0.80;99.90;;;;;;5047482;28;20234;-63
2023/01/22 07:00:04;;;;;;;8.73;4.43;;;0.80;99.90;;;;;;5066985;28;20747;-63
2023/01/22 07:02:31;;;;;;;6.20;4.53;;;0.80;99.90;;;;;;5069670;28;20202;-63
2023/01/22 07:04:58;;;;;;;7.10;4.57;;;0.80;99.90;;;;;;5070309;28;20917;-63
2023/01/22 07:07:25;;;;;;;5.37;4.00;;;0.80;99.90;;;;;;5067827;28;20222;-63
2023/01/22 07:09:51;;;;;;;6.07;4.63;;;0.90;99.90;;;;;;5080546;28;20211;-63
2023/01/22 07:12:20;;;;;;;7.90;4.47;;;0.80;99.90;;;;;;5048314;28;20211;-63
2023/01/22 07:14:46;;;;;;;6.67;4.17;;;0.80;99.90;;;;;;5075075;28;20203;-63
2023/01/22 07:17:13;;;;;;;5.43;4.50;;;0.90;99.90;;;;;;5080028;28;20200;-63
2023/01/22 07:19:40;;;;;;;5.33;4.23;;;0.80;99.90;;;;;;5076725;28;20231;-63
2023/01/22 07:22:07;;;;;;;5.73;4.30;;;0.80;99.90;;;;;;5056577;28;20307;-63
2023/01/22 07:24:34;;;;;;;5.90;4.63;;;0.80;99.90;;;;;;5075775;28;20228;-63
2023/01/22 07:27:01;;;;;;;10.47;5.03;;;0.80;99.90;;;;;;5038575;28;21435;-63
2023/01/22 07:29:29;;;;;;;8.73;4.60;;;0.80;99.90;;;;;;5070730;28;20195;-63
2023/01/22 07:31:56;;;;;;;5.33;4.27;;;0.80;99.90;;;;;;5071550;28;20705;-63
2023/01/22 07:34:23;;;;;;;6.23;4.83;;;0.80;99.90;;;;;;5074252;28;20204;-64
2023/01/22 07:36:50;;;;;;;4.77;3.70;;;0.90;99.90;;;;;;5068659;28;20200;-63
2023/01/22 07:39:17;;;;;;;4.93;4.07;;;0.90;99.90;;;;;;5061686;28;20204;-63
2023/01/22 07:41:44;;;;;;;7.10;4.60;;;0.20;99.90;;;;;;5049328;28;20229;-64
2023/01/22 07:44:11;;;;;;;6.23;4.60;;;0.80;99.90;;;;;;5077141;28;20216;-63
2023/01/22 07:46:39;;;;;;;4.93;4.33;;;0.90;99.90;;;;;;5075461;28;20297;-64
2023/01/22 07:49:06;;;;;;;6.10;4.77;;;0.90;99.90;;;;;;5081981;28;20214;-64
2023/01/22 07:51:33;;;;;;;5.07;3.93;;;0.90;99.90;;;;;;5075514;28;20219;-64
2023/01/22 07:54:00;;;;;;;6.50;4.40;;;0.90;99.90;;;;;;5068485;28;21029;-63
2023/01/22 07:56:27;;;;;;;6.20;3.73;;;0.90;99.90;;;;;;5083547;28;20582;-63
2023/01/22 07:58:53;;;;;;;4.90;4.03;;;1.90;99.90;;;;;;5038894;28;20235;-64
2023/01/22 08:01:20;;;;;;;7.63;4.30;;;0.90;99.90;;;;;;5066234;28;20685;-63
2023/01/22 08:03:48;;;;;;;5.60;4.20;;;0.90;99.90;;;;;;5064582;27;20199;-64
2023/01/22 08:06:19;;;;;;;6.37;4.23;;;0.90;99.90;;;;;;5058873;28;20649;-64
2023/01/22 08:08:46;;;;;;;4.93;4.43;;;1.80;99.90;;;;;;5037048;27;20521;-64
2023/01/22 08:11:13;;;;;;;5.77;3.90;;;0.90;99.90;;;;;;5075096;27;22495;-65
2023/01/22 08:13:39;;;;;;;5.43;3.80;;;1.00;99.90;;;;;;5028637;28;21130;-66
2023/01/22 08:16:08;;;;;;;6.37;4.57;;;0.90;99.90;;;;;;5064774;27;20764;-63
2023/01/22 08:18:35;;;;;;;4.93;4.07;;;0.90;99.90;;;;;;5069137;27;20207;-63
2023/01/22 08:21:03;;;;;;;5.13;4.20;;;0.90;99.90;;;;;;5080808;27;20205;-62
2023/01/22 08:23:30;;;;;;;6.47;4.30;;;1.00;99.90;;;;;;5051330;27;20935;-64
2023/01/22 08:25:59;;;;;;;5.33;4.50;;;1.00;99.90;;;;;;5072313;27;20227;-63
2023/01/22 08:28:26;;;;;;;6.47;4.10;;;1.00;99.90;;;;;;5057804;28;20730;-63
2023/01/22 08:30:57;;;;;;;7.43;3.83;;;1.00;99.90;;;;;;5047559;28;20243;-63
2023/01/22 08:33:24;;;;;;;5.23;4.07;;;1.00;99.90;;;;;;5080611;27;20197;-63
2023/01/22 08:35:51;;;;;;;4.87;3.73;;;1.00;99.90;;;;;;5084163;28;20205;-63
2023/01/22 08:38:19;;;;;;;5.37;4.07;;;0.90;99.90;;;;;;5071664;28;20256;-63
2023/01/22 08:40:49;;;;;;;5.63;3.80;;;1.00;99.90;;;;;;5070183;28;20204;-63
2023/01/22 08:43:16;;;;;;;5.77;3.80;;;1.00;99.90;;;;;;5064395;27;20219;-63
2023/01/22 08:45:43;;;;;;;6.23;4.30;;;0.90;99.90;;;;;;5052198;28;20223;-63
2023/01/22 08:48:10;;;;;;;7.70;4.20;;;1.00;99.90;;;;;;5076359;28;20223;-63
2023/01/22 08:50:36;;;;;;;5.07;3.63;;;0.90;99.90;;;;;;5084566;27;20212;-63
2023/01/22 08:53:03;;;;;;;7.67;3.90;;;1.00;99.90;;;;;;5066851;28;20223;-63
2023/01/22 08:55:32;;;;;;;8.03;3.47;;;1.00;99.90;;;;;;5037247;27;20204;-66
2023/01/22 08:57:58;;;;;;;6.03;4.40;;;1.00;99.90;;;;;;5067533;27;20235;-63
2023/01/22 09:00:26;;;;;;;5.70;4.27;;;1.00;99.90;;;;;;5026880;28;20219;-63
2023/01/22 09:02:57;;;;;;;5.30;3.77;;;1.10;99.90;;;;;;5044511;27;20231;-63
2023/01/22 09:05:24;;;;;;;6.43;4.10;;;1.10;99.90;;;;;;5061558;28;20231;-63
2023/01/22 09:07:51;;;;;;;5.07;3.83;;;1.00;99.90;;;;;;5061755;28;20215;-63
2023/01/22 09:10:18;;;;;;;5.83;4.23;;;1.10;99.90;;;;;;5057854;28;20207;-64
2023/01/22 09:12:46;;;;;;;5.07;3.80;;;1.00;99.90;;;;;;5071235;27;20206;-64
2023/01/22 09:15:13;;;;;;;6.83;3.27;;;1.10;99.90;;;;;;5028618;28;20698;-64
2023/01/22 09:17:41;;;;;;;4.03;3.47;;;1.10;99.90;;;;;;5058890;27;20294;-64
2023/01/22 09:20:09;;;;;;;9.43;4.93;;;1.10;99.90;;;;;;5062113;28;20239;-64
2023/01/22 09:22:36;;;;;;;5.30;4.13;;;1.10;99.90;;;;;;5055566;27;20225;-64
2023/01/22 09:25:03;;;;;;;5.67;4.60;;;1.10;99.90;;;;;;5062598;28;21189;-63
2023/01/22 09:27:30;;;;;;;4.83;4.27;;;1.10;99.90;;;;;;5048885;28;21272;-64
2023/01/22 09:29:58;;;;;;;5.60;5.03;;;1.20;99.90;;;;;;5059190;27;20942;-64
2023/01/22 09:32:25;;;;;;;8.60;6.60;;;1.20;99.90;;;;;;5025947;27;20219;-64
2023/01/22 09:34:52;;;;;;;10.30;7.87;;;1.10;99.90;;;;;;5075750;27;20229;-64
2023/01/22 09:37:32;;;;;;;9.23;6.53;;;1.20;99.90;;;;;;5045212;27;20222;-65
2023/01/22 09:39:59;;;;;;;8.70;6.27;;;1.20;99.90;;;;;;5067683;28;20308;-64
2023/01/22 09:42:31;;;;;;;6.30;4.47;;;1.20;99.90;;;;;;5055518;28;20224;-64
2023/01/22 09:45:03;;;;;;;6.53;4.30;;;1.20;99.90;;;;;;5049964;27;20755;-66
2023/01/22 09:47:34;;;;;;;5.43;4.23;;;1.20;99.90;;;;;;5031914;28;21602;-64
2023/01/22 09:50:06;;;;;;;6.40;4.00;;;1.20;99.90;;;;;;5061454;28;20228;-64
2023/01/22 09:52:36;;;;;;;10.90;4.77;;;1.20;99.90;;;;;;5063301;28;20220;-64
2023/01/22 09:55:05;;;;;;;4.20;3.40;;;1.20;99.90;;;;;;5069249;28;20224;-64
2023/01/22 09:57:32;;;;;;;6.10;3.53;;;1.20;99.90;;;;;;5054844;28;20229;-64
2023/01/22 10:00:00;;;;;;;5.43;3.77;;;1.30;99.90;;;;;;5051669;28;20223;-64
2023/01/22 10:02:30;;;;;;;4.67;3.47;;;1.30;99.90;;;;;;5037651;28;20676;-65
2023/01/22 10:05:02;;;;;;;7.43;4.20;;;1.30;99.90;;;;;;5062589;27;20215;-64
2023/01/22 10:07:33;;;;;;;5.40;4.03;;;1.20;99.90;;;;;;5063802;28;20334;-64
2023/01/22 10:10:09;;;;;;;4.93;3.53;;;1.30;99.90;;;;;;5052257;28;20314;-64
2023/01/22 10:12:36;;;;;;;5.50;4.10;;;1.30;99.90;;;;;;5047557;28;20223;-64
2023/01/22 10:15:07;;;;;;;6.50;4.97;;;1.50;99.90;;;;;;5043378;28;20260;-65
2023/01/22 10:17:35;;;;;;;7.53;4.97;;;1.40;99.90;;;;;;5032552;28;20835;-65
2023/01/22 10:20:05;;;;;;;6.50;4.43;;;1.40;99.90;;;;;;5053250;28;20981;-64
2023/01/22 10:22:31;;;;;;;13.47;6.77;;;1.40;99.90;;;;;;5063250;28;20514;-64
2023/01/22 10:24:58;;;;;;;11.50;6.63;;;1.40;99.90;;;;;;5046972;27;20220;-64
2023/01/22 10:27:34;;;;;;;12.03;7.37;;;1.40;99.90;;;;;;5044465;28;20226;-64
2023/01/22 10:30:08;;;;;;;7.57;4.43;;;1.40;99.90;;;;;;5048042;28;20210;-64
2023/01/22 10:32:35;;;;;;;9.00;4.03;;;1.40;99.90;;;;;;5034941;27;20766;-65
2023/01/22 10:35:06;;;;;;;4.57;3.67;;;1.40;99.90;;;;;;5051212;28;20224;-64
2023/01/22 10:37:44;;;;;;;4.93;3.43;;;1.50;99.90;;;;;;5069041;28;20217;-65
2023/01/22 10:40:21;;;;;;;7.40;4.00;;;1.50;99.90;;;;;;5050451;28;20253;-65
2023/01/22 10:43:00;;;;;;;5.60;3.50;;;1.60;99.90;;;;;;5054722;28;20220;-65
2023/01/22 10:45:28;;;;;;;4.17;3.50;;;1.50;99.90;;;;;;5044141;28;20636;-64
2023/01/22 10:48:04;;;;;;;6.27;3.83;;;1.50;99.90;;;;;;5037377;28;20245;-64
2023/01/22 10:50:34;;;;;;;9.27;4.37;;;1.50;99.90;;;;;;5035414;28;20220;-65
2023/01/22 10:53:04;;;;;;;6.80;4.40;;;1.60;99.90;;;;;;5049482;28;20211;-65
2023/01/22 10:55:35;;;;;;;8.50;4.27;;;1.60;99.90;;;;;;5057422;28;20205;-65
2023/01/22 10:58:06;;;;;;;4.50;3.60;;;1.60;99.90;;;;;;5058573;28;20300;-65
2023/01/22 11:00:37;;;;;;;7.60;4.60;;;1.60;99.90;;;;;;5065297;28;20201;-64
2023/01/22 11:03:14;;;;;;;6.07;3.73;;;1.70;99.90;;;;;;5037581;28;20205;-67
2023/01/22 11:05:46;;;;;;;7.00;3.80;;;1.60;99.90;;;;;;5042739;28;20433;-66
2023/01/22 11:08:17;;;;;;;5.10;3.70;;;1.60;99.90;;;;;;5043331;28;20227;-66
2023/01/22 11:10:48;;;;;;;6.60;3.53;;;1.70;99.90;;;;;;5039114;28;20222;-65
2023/01/22 11:13:20;;;;;;;7.87;3.50;;;1.70;99.90;;;;;;5046900;28;20248;-65
2023/01/22 11:15:54;;;;;;;7.23;3.77;;;1.70;99.90;;;;;;5033786;28;20210;-65
2023/01/22 11:18:30;;;;;;;5.33;3.57;;;1.70;99.90;;;;;;5043528;28;20219;-65
2023/01/22 11:20:59;;;;;;;5.10;3.53;;;1.80;99.90;;;;;;5029665;28;21746;-65
2023/01/22 11:23:35;;;;;;;7.90;3.60;;;1.80;99.90;;;;;;5071200;28;20222;-65
2023/01/22 11:26:11;;;;;;;7.23;3.70;;;1.80;99.90;;;;;;5035168;28;22637;-65
2023/01/22 11:28:44;;;;;;;4.83;3.37;;;1.80;99.90;;;;;;5046239;28;20240;-65
2023/01/22 11:31:33;;;;;;;5.80;3.70;;;1.80;99.90;;;;;;5053874;28;20342;-65
2023/01/22 11:34:22;;;;;;;8.23;3.70;;;1.80;99.90;;;;;;5043886;28;21174;-65
2023/01/22 11:36:55;;;;;;;7.57;3.87;;;1.80;99.90;;;;;;5005531;27;20225;-66
2023/01/22 11:39:47;;;;;;;5.63;3.40;;;1.80;99.90;;;;;;5073035;28;20807;-65
2023/01/22 11:42:27;;;;;;;5.63;3.20;;;1.90;99.90;;;;;;5048841;27;20887;-65
2023/01/22 11:45:03;;;;;;;7.53;3.37;;;1.90;99.90;;;;;;5033811;27;20317;-65
2023/01/22 11:47:51;;;;;;;8.57;4.00;;;1.90;99.90;;;;;;5067963;28;20231;-65
2023/01/22 11:50:27;;;;;;;7.03;3.20;;;1.90;99.90;;;;;;5057948;27;20434;-65
2023/01/22 11:53:05;;;;;;;4.77;3.70;;;1.90;99.90;;;;;;5035157;27;20593;-65
2023/01/22 11:55:49;;;;;;;8.07;3.30;;;2.00;99.90;;;;;;5050087;27;20686;-65
2023/01/22 11:58:25;;;;;;;5.40;3.30;;;2.00;99.90;;;;;;5061448;28;20235;-65
2023/01/22 12:01:03;;;;;;;5.63;3.50;;;2.00;99.90;;;;;;5043306;28;20232;-65
2023/01/22 12:04:11;;;;;;;5.40;3.63;;;2.00;99.90;;;;;;5072903;27;20965;-65
2023/01/22 12:06:58;;;;;;;5.37;3.30;;;2.00;99.90;;;;;;5046758;27;20740;-66
2023/01/22 12:09:34;;;;;;;6.03;4.40;;;2.00;99.90;;;;;;5066163;27;20225;-65
2023/01/22 12:12:22;;;;;;;7.10;3.57;;;2.00;99.90;;;;;;5033382;27;20224;-65
2023/01/22 12:15:00;;;;;;;7.53;3.60;;;2.10;99.90;;;;;;5041822;27;21211;-65
2023/01/22 12:17:43;;;;;;;8.93;4.27;;;2.00;99.90;;;;;;5052791;27;20888;-65
2023/01/22 12:20:28;;;;;;;6.50;4.20;;;2.00;99.90;;;;;;5041890;27;20213;-65
2023/01/22 12:23:02;;;;;;;9.40;4.50;;;2.10;99.90;;;;;;5035756;27;22614;-65
2023/01/22 12:25:37;;;;;;;8.27;3.57;;;2.10;99.90;;;;;;5058261;27;20451;-65
2023/01/22 12:28:11;;;;;;;5.87;4.13;;;2.10;99.90;;;;;;5041051;28;20235;-65
2023/01/22 12:30:47;;;;;;;7.03;3.60;;;2.10;99.90;;;;;;5044510;27;20233;-65
2023/01/22 12:33:19;;;;;;;8.07;4.00;;;2.20;99.90;;;;;;5045400;27;20591;-65
2023/01/22 12:35:50;;;;;;;9.03;3.57;;;2.20;99.90;;;;;;5056775;28;20241;-65
2023/01/22 12:38:27;;;;;;;4.83;3.47;;;2.20;99.90;;;;;;5036006;27;20215;-65
2023/01/22 12:41:12;;;;;;;5.53;3.20;;;2.20;99.90;;;;;;5038857;28;20707;-65
2023/01/22 12:43:47;;;;;;;4.83;3.20;;;2.20;99.90;;;;;;5062211;27;21096;-65
2023/01/22 12:46:24;;;;;;;5.63;3.30;;;2.20;99.90;;;;;;5050944;27;20236;-65
2023/01/22 12:48:57;;;;;;;5.83;4.13;;;2.20;99.90;;;;;;5039334;22;20235;-65
2023/01/22 12:51:34;;;;;;;8.10;3.73;;;2.20;99.90;;;;;;5002617;28;20204;-66
2023/01/22 12:54:19;;;;;;;5.17;3.90;;;2.30;99.90;;;;;;5003662;28;20214;-65
2023/01/22 12:56:47;;;;;;;5.30;3.90;;;2.30;99.90;;;;;;5005127;28;20225;-65
2023/01/22 12:59:32;;;;;;;5.77;3.20;;;2.30;99.90;;;;;;5002628;28;20243;-65
2023/01/22 13:02:00;;;;;;;4.77;3.17;;;2.20;99.90;;;;;;5017514;28;20300;-65
2023/01/22 13:04:32;;;;;;;7.00;3.57;;;2.20;99.90;;;;;;5011361;28;20312;-65
2023/01/22 13:07:07;;;;;;;5.60;3.53;;;2.30;99.90;;;;;;5027546;28;20350;-64
2023/01/22 13:09:39;;;;;;;5.70;3.40;;;2.30;99.90;;;;;;5002594;28;20224;-64
2023/01/22 13:12:09;;;;;;;4.77;3.40;;;2.30;99.90;;;;;;5010501;28;20239;-65
2023/01/22 13:14:41;;;;;;;8.83;3.60;;;2.30;99.90;;;;;;5027290;28;20220;-66
2023/01/22 13:17:19;;;;;;;7.07;3.33;;;2.40;99.90;;;;;;5005204;28;20281;-65